createdAt,value
2023-01-17T00:02:19.703Z,12.40
2023-01-17T00:05:06.730Z,12.80
2023-01-17T00:07:53.517Z,13.10
2023-01-17T00:10:24.770Z,12.20
2023-01-17T00:13:01.021Z,13.30
2023-01-17T00:15:30.906Z,13.50
2023-01-17T00:17:59.833Z,13.60
2023-01-17T00:20:49.716Z,13.70
2023-01-17T00:23:39.405Z,14.30
2023-01-17T00:26:13.331Z,14.20
2023-01-17T00:28:43.059Z,13.50
2023-01-17T00:31:12.992Z,13.80
2023-01-17T00:33:41.119Z,14.10
2023-01-17T00:36:10.219Z,13.80
2023-01-17T00:38:39.492Z,13.60
2023-01-17T00:41:15.057Z,13.30
2023-01-17T00:44:01.379Z,14.20
2023-01-17T00:46:48.195Z,13.90
2023-01-17T00:49:35.017Z,13.80
2023-01-17T00:52:21.528Z,13.50
2023-01-17T00:55:08.366Z,13.30
2023-01-17T00:57:54.996Z,13.10
2023-01-17T01:00:42.230Z,12.70
2023-01-17T01:03:30.283Z,12.50
2023-01-17T01:06:17.361Z,12.40
2023-01-17T01:09:04.080Z,12.60
2023-01-17T01:11:50.455Z,11.40
2023-01-17T01:14:37.167Z,11.50
2023-01-17T01:17:24.154Z,11.60
2023-01-17T01:20:10.792Z,11.70
2023-01-17T01:22:57.091Z,11.10
2023-01-17T01:25:43.580Z,11.80
2023-01-17T01:28:32.483Z,11.00
2023-01-17T01:31:21.183Z,11.10
2023-01-17T01:33:51.848Z,10.70
2023-01-17T01:36:20.524Z,11.10
2023-01-17T01:38:50.413Z,11.50
2023-01-17T01:41:18.611Z,11.50
2023-01-17T01:43:58.745Z,11.20
2023-01-17T01:46:29.789Z,11.70
2023-01-17T01:49:12.922Z,11.40
2023-01-17T01:51:49.272Z,11.90
2023-01-17T01:54:22.531Z,12.20
2023-01-17T01:56:54.332Z,11.40
2023-01-17T01:59:23.131Z,11.90
2023-01-17T02:01:53.416Z,12.20
2023-01-17T02:04:22.751Z,12.70
2023-01-17T02:07:03.999Z,11.90
2023-01-17T02:09:32.129Z,12.40
2023-01-17T02:12:00.523Z,11.70
2023-01-17T02:14:28.844Z,12.00
2023-01-17T02:17:02.868Z,11.80
2023-01-17T02:20:08.398Z,11.60
2023-01-17T02:22:59.821Z,11.20
2023-01-17T02:25:57.658Z,11.40
2023-01-17T02:28:43.676Z,10.10
2023-01-17T02:31:20.785Z,10.10
2023-01-17T02:34:07.159Z,10.90
2023-01-17T02:37:11.894Z,10.10
2023-01-17T02:39:46.678Z,10.30
2023-01-17T02:42:18.108Z,9.70
2023-01-17T02:44:46.035Z,9.80
2023-01-17T02:47:21.114Z,9.70
2023-01-17T02:49:49.419Z,9.70
2023-01-17T02:52:36.052Z,8.70
2023-01-17T02:55:06.922Z,8.80
2023-01-17T02:57:46.919Z,8.80
2023-01-17T03:00:27.555Z,8.80
2023-01-17T03:02:58.546Z,9.00
2023-01-17T03:05:34.292Z,8.00
2023-01-17T03:08:03.182Z,8.20
2023-01-17T03:10:34.273Z,8.30
2023-01-17T03:13:03.654Z,7.20
2023-01-17T03:15:31.896Z,7.80
2023-01-17T03:18:04.226Z,7.60
2023-01-17T03:20:32.235Z,7.70
2023-01-17T03:23:00.308Z,7.30
2023-01-17T03:25:28.254Z,7.30
2023-01-17T03:27:56.264Z,7.50
2023-01-17T03:30:24.729Z,7.10
2023-01-17T03:32:52.827Z,7.40
2023-01-17T03:35:21.129Z,7.70
2023-01-17T03:37:49.242Z,7.50
2023-01-17T03:40:17.491Z,6.80
2023-01-17T03:42:45.691Z,6.70
2023-01-17T03:45:14.326Z,6.40
2023-01-17T03:47:42.652Z,6.60
2023-01-17T03:50:12.033Z,6.70
2023-01-17T03:52:40.122Z,6.20
2023-01-17T03:55:08.504Z,6.30
2023-01-17T03:57:36.613Z,6.20
2023-01-17T04:00:05.098Z,6.00
2023-01-17T04:02:35.000Z,5.50
2023-01-17T04:05:03.546Z,5.40
2023-01-17T04:07:31.625Z,6.00
2023-01-17T04:09:59.588Z,5.90
2023-01-17T04:12:27.656Z,5.90
2023-01-17T04:14:55.605Z,5.50
2023-01-17T04:17:23.799Z,5.10
2023-01-17T04:19:51.969Z,4.90
2023-01-17T04:22:19.921Z,4.90
2023-01-17T04:24:47.845Z,5.10
2023-01-17T04:27:16.159Z,5.70
2023-01-17T04:29:46.572Z,5.60
2023-01-17T04:32:14.994Z,4.80
2023-01-17T04:34:43.005Z,4.70
2023-01-17T04:37:10.981Z,5.20
2023-01-17T04:39:38.991Z,5.00
2023-01-17T04:42:07.101Z,4.30
2023-01-17T04:44:35.140Z,4.20
2023-01-17T04:47:03.460Z,4.10
2023-01-17T04:49:31.511Z,4.20
2023-01-17T04:51:59.716Z,4.30
2023-01-17T04:54:27.830Z,4.10
2023-01-17T04:56:55.757Z,4.20
2023-01-17T04:59:23.755Z,4.10
2023-01-17T05:01:51.752Z,3.70
2023-01-17T05:04:19.713Z,3.60
2023-01-17T05:06:47.656Z,3.80
2023-01-17T05:09:15.649Z,4.00
2023-01-17T05:11:43.820Z,3.90
2023-01-17T05:14:11.817Z,4.30
2023-01-17T05:16:39.726Z,5.10
2023-01-17T05:19:07.799Z,4.70
2023-01-17T05:21:35.780Z,4.90
2023-01-17T05:24:04.292Z,4.70
2023-01-17T05:26:32.325Z,4.40
2023-01-17T05:29:00.313Z,4.90
2023-01-17T05:31:28.378Z,5.50
2023-01-17T05:33:56.337Z,4.70
2023-01-17T05:36:24.304Z,5.80
2023-01-17T05:38:52.310Z,5.70
2023-01-17T05:41:20.348Z,5.50
2023-01-17T05:43:48.296Z,6.20
2023-01-17T05:46:18.166Z,5.40
2023-01-17T05:48:46.165Z,5.20
2023-01-17T05:51:14.223Z,4.90
2023-01-17T05:53:42.236Z,5.00
2023-01-17T05:56:10.219Z,6.00
2023-01-17T05:58:40.427Z,7.00
2023-01-17T06:01:08.476Z,7.50
2023-01-17T06:03:36.428Z,7.20
2023-01-17T06:06:04.594Z,7.20
2023-01-17T06:08:32.609Z,7.90
2023-01-17T06:11:00.565Z,7.30
2023-01-17T06:13:28.745Z,6.70
2023-01-17T06:16:02.835Z,6.50
2023-01-17T06:18:31.963Z,6.00
2023-01-17T06:20:59.920Z,6.20
2023-01-17T06:23:28.529Z,6.40
2023-01-17T06:25:56.762Z,6.70
2023-01-17T06:28:24.766Z,7.00
2023-01-17T06:30:52.819Z,6.90
2023-01-17T06:33:20.778Z,7.40
2023-01-17T06:35:50.498Z,7.50
2023-01-17T06:38:19.170Z,8.10
2023-01-17T06:40:47.347Z,8.60
2023-01-17T06:43:16.147Z,10.20
2023-01-17T06:45:44.217Z,9.30
2023-01-17T06:48:12.184Z,9.60
2023-01-17T06:50:40.250Z,9.20
2023-01-17T06:53:08.322Z,9.60
2023-01-17T06:55:40.393Z,11.40
2023-01-17T06:58:08.969Z,11.80
2023-01-17T07:00:39.572Z,11.20
2023-01-17T07:03:22.538Z,12.00
2023-01-17T07:05:51.299Z,11.10
2023-01-17T07:08:20.092Z,11.10
2023-01-17T07:10:48.973Z,11.30
2023-01-17T07:13:17.082Z,11.40
2023-01-17T07:15:45.084Z,11.30
2023-01-17T07:18:13.104Z,11.60
2023-01-17T07:20:44.021Z,12.80
2023-01-17T07:23:12.812Z,13.00
2023-01-17T07:25:40.904Z,12.90
2023-01-17T07:28:09.385Z,13.50
2023-01-17T07:30:37.381Z,13.40
2023-01-17T07:33:05.589Z,13.90
2023-01-17T07:35:34.185Z,14.80
2023-01-17T07:38:02.659Z,14.30
2023-01-17T07:40:31.179Z,14.80
2023-01-17T07:43:04.026Z,15.00
2023-01-17T07:45:32.573Z,15.30
2023-01-17T07:48:00.551Z,15.60
2023-01-17T07:50:28.523Z,16.60
2023-01-17T07:52:56.561Z,17.30
2023-01-17T07:55:24.685Z,17.70
2023-01-17T07:57:52.763Z,17.30
2023-01-17T08:00:23.165Z,16.90
2023-01-17T08:02:56.355Z,17.50
2023-01-17T08:05:25.675Z,17.40
2023-01-17T08:07:54.153Z,18.80
2023-01-17T08:10:22.835Z,18.90
2023-01-17T08:12:51.011Z,18.70
2023-01-17T08:15:19.074Z,18.90
2023-01-17T08:17:49.143Z,19.10
2023-01-17T08:20:17.206Z,19.90
2023-01-17T08:22:45.553Z,21.00
2023-01-17T08:25:13.949Z,21.10
2023-01-17T08:27:42.005Z,21.70
2023-01-17T08:30:10.742Z,21.50
2023-01-17T08:32:41.629Z,21.40
2023-01-17T08:35:10.287Z,21.40
2023-01-17T08:37:39.232Z,21.70
2023-01-17T08:40:08.893Z,22.20
2023-01-17T08:42:39.903Z,24.90
2023-01-17T08:45:10.172Z,22.80
2023-01-17T08:47:38.742Z,22.60
2023-01-17T08:50:07.262Z,23.80
2023-01-17T08:52:36.224Z,23.10
2023-01-17T08:55:06.060Z,24.40
2023-01-17T08:57:34.096Z,22.80
2023-01-17T09:00:02.370Z,21.00
2023-01-17T09:02:30.381Z,21.90
2023-01-17T09:04:58.367Z,22.70
2023-01-17T09:07:27.120Z,24.40
2023-01-17T09:09:55.223Z,22.60
2023-01-17T09:12:23.645Z,21.40
2023-01-17T09:14:51.674Z,21.70
2023-01-17T09:17:19.701Z,20.30
2023-01-17T09:19:48.899Z,20.40
2023-01-17T09:22:16.951Z,20.40
2023-01-17T09:24:45.029Z,18.80
2023-01-17T09:27:13.093Z,18.20
2023-01-17T09:29:41.083Z,17.70
2023-01-17T09:32:09.143Z,18.30
2023-01-17T09:34:37.105Z,18.50
2023-01-17T09:37:05.126Z,16.50
2023-01-17T09:39:33.124Z,16.90
2023-01-17T09:42:19.777Z,16.80
2023-01-17T09:44:52.875Z,16.70
2023-01-17T09:47:39.540Z,16.30
2023-01-17T09:50:29.633Z,15.40
2023-01-17T09:53:16.341Z,14.90
2023-01-17T09:55:53.827Z,14.30
2023-01-17T09:58:42.120Z,14.60
2023-01-17T10:01:22.272Z,14.30
2023-01-17T10:03:59.337Z,15.40
2023-01-17T10:06:43.296Z,14.80
2023-01-17T10:09:32.607Z,15.20
2023-01-17T10:12:24.568Z,13.50
2023-01-17T10:15:14.127Z,13.40
2023-01-17T10:17:48.414Z,13.30
2023-01-17T10:20:25.907Z,12.90
2023-01-17T10:23:15.570Z,13.20
2023-01-17T10:25:54.731Z,13.50
2023-01-17T10:28:31.714Z,12.40
2023-01-17T10:31:08.206Z,12.50
2023-01-17T10:33:39.649Z,13.50
2023-01-17T10:36:30.443Z,13.40
2023-01-17T10:39:15.356Z,12.50
2023-01-17T10:41:46.473Z,13.10
2023-01-17T10:44:37.466Z,14.70
2023-01-17T10:47:23.476Z,13.00
2023-01-17T10:49:53.810Z,12.90
2023-01-17T10:52:27.413Z,12.50
2023-01-17T10:54:56.585Z,12.90
2023-01-17T10:57:27.154Z,12.60
2023-01-17T11:00:01.241Z,12.40
2023-01-17T11:02:36.022Z,12.20
2023-01-17T11:05:19.562Z,12.60
2023-01-17T11:08:08.660Z,12.10
2023-01-17T11:10:36.925Z,11.60
2023-01-17T11:13:07.543Z,12.40
2023-01-17T11:15:39.968Z,12.70
2023-01-17T11:18:16.336Z,12.80
2023-01-17T11:20:45.092Z,12.70
2023-01-17T11:23:16.081Z,12.40
2023-01-17T11:25:55.300Z,12.00
2023-01-17T11:28:30.714Z,12.50
2023-01-17T11:31:00.479Z,11.60
2023-01-17T11:33:55.979Z,11.70
2023-01-17T11:36:29.113Z,11.30
2023-01-17T11:39:04.378Z,11.80
2023-01-17T11:41:40.623Z,13.10
2023-01-17T11:44:23.737Z,11.90
2023-01-17T11:47:07.297Z,11.90
2023-01-17T11:49:35.727Z,11.40
2023-01-17T11:52:17.684Z,11.70
2023-01-17T11:54:48.141Z,11.10
2023-01-17T11:57:29.212Z,11.40
2023-01-17T12:00:11.989Z,10.80
2023-01-17T12:02:58.836Z,11.00
2023-01-17T12:05:58.147Z,10.40
2023-01-17T12:09:23.030Z,10.60
2023-01-17T12:12:09.814Z,10.90
2023-01-17T12:14:52.282Z,11.10
2023-01-17T12:17:32.040Z,11.20
2023-01-17T12:20:05.270Z,10.80
2023-01-17T12:22:48.011Z,10.60
2023-01-17T12:25:21.611Z,11.10
2023-01-17T12:27:52.485Z,10.60
2023-01-17T12:30:57.397Z,10.00
2023-01-17T12:33:52.793Z,11.00
2023-01-17T12:36:26.665Z,11.40
2023-01-17T12:38:56.719Z,10.30
2023-01-17T12:41:45.670Z,10.50
2023-01-17T12:44:18.680Z,10.30
2023-01-17T12:47:02.665Z,10.80
2023-01-17T12:49:41.835Z,11.80
2023-01-17T12:52:20.979Z,11.60
2023-01-17T12:54:55.687Z,10.60
2023-01-17T12:57:32.050Z,10.40
2023-01-17T13:00:07.105Z,9.10
2023-01-17T13:02:37.957Z,10.40
2023-01-17T13:05:15.431Z,9.90
2023-01-17T13:07:49.747Z,9.90
2023-01-17T13:10:48.220Z,9.30
2023-01-17T13:13:22.499Z,9.90
2023-01-17T13:15:55.549Z,10.20
2023-01-17T13:18:29.911Z,9.70
2023-01-17T13:21:27.184Z,9.50
2023-01-17T13:24:06.015Z,9.80
2023-01-17T13:27:01.251Z,10.40
2023-01-17T13:29:54.272Z,10.00
2023-01-17T13:32:45.900Z,10.10
2023-01-17T13:35:17.318Z,10.90
2023-01-17T13:37:56.911Z,10.10
2023-01-17T13:40:46.698Z,10.10
2023-01-17T13:43:40.152Z,10.10
2023-01-17T13:46:08.468Z,10.40
2023-01-17T13:48:41.119Z,10.50
2023-01-17T13:51:10.828Z,8.70
2023-01-17T13:53:38.737Z,9.70
2023-01-17T13:56:14.415Z,9.90
2023-01-17T13:58:47.240Z,9.70
2023-01-17T14:01:15.880Z,8.90
2023-01-17T14:03:46.623Z,9.80
2023-01-17T14:06:36.361Z,10.20
2023-01-17T14:09:16.552Z,8.60
2023-01-17T14:12:05.363Z,8.90
2023-01-17T14:14:45.049Z,9.30
2023-01-17T14:17:20.697Z,10.30
2023-01-17T14:19:52.048Z,10.00
2023-01-17T14:22:20.235Z,11.80
2023-01-17T14:25:10.146Z,11.10
2023-01-17T14:27:51.746Z,10.10
2023-01-17T14:30:25.963Z,9.50
2023-01-17T14:33:06.039Z,9.30
2023-01-17T14:35:37.101Z,10.00
2023-01-17T14:38:26.748Z,9.70
2023-01-17T14:40:56.480Z,8.50
2023-01-17T14:43:28.755Z,8.40
2023-01-17T14:45:59.110Z,8.10
2023-01-17T14:48:28.979Z,9.70
2023-01-17T14:51:00.197Z,11.40
2023-01-17T14:53:30.812Z,10.60
2023-01-17T14:56:12.593Z,9.80
2023-01-17T14:58:41.577Z,9.70
2023-01-17T15:01:15.535Z,8.70
2023-01-17T15:03:50.298Z,9.00
2023-01-17T15:06:18.343Z,8.50
2023-01-17T15:08:47.643Z,8.30
2023-01-17T15:11:23.187Z,8.10
2023-01-17T15:13:55.160Z,8.10
2023-01-17T15:16:34.182Z,7.90
2023-01-17T15:19:03.568Z,7.50
2023-01-17T15:21:37.024Z,7.40
2023-01-17T15:24:08.755Z,7.00
2023-01-17T15:26:40.942Z,7.40
2023-01-17T15:29:19.384Z,8.20
2023-01-17T15:31:49.981Z,8.00
2023-01-17T15:34:27.836Z,7.80
2023-01-17T15:37:00.834Z,8.00
2023-01-17T15:39:33.194Z,7.60
2023-01-17T15:42:06.005Z,8.60
2023-01-17T15:44:47.393Z,9.20
2023-01-17T15:47:28.333Z,10.50
2023-01-17T15:49:57.369Z,9.30
2023-01-17T15:52:25.698Z,8.30
2023-01-17T15:55:00.942Z,8.00
2023-01-17T15:57:39.043Z,8.10
2023-01-17T16:00:20.845Z,7.70
2023-01-17T16:02:55.533Z,7.70
2023-01-17T16:05:24.257Z,7.50
2023-01-17T16:07:53.860Z,7.40
2023-01-17T16:10:28.863Z,7.20
2023-01-17T16:12:56.964Z,8.00
2023-01-17T16:15:29.074Z,7.80
2023-01-17T16:18:07.750Z,7.50
2023-01-17T16:20:44.526Z,8.10
2023-01-17T16:23:13.147Z,7.60
2023-01-17T16:25:41.320Z,8.70
2023-01-17T16:28:09.342Z,8.40
2023-01-17T16:30:38.055Z,8.30
2023-01-17T16:33:06.133Z,8.60
2023-01-17T16:35:34.686Z,8.60
2023-01-17T16:38:05.463Z,8.60
2023-01-17T16:40:40.162Z,8.90
2023-01-17T16:43:08.310Z,9.10
2023-01-17T16:45:41.695Z,9.10
2023-01-17T16:48:12.666Z,9.40
2023-01-17T16:50:42.464Z,10.00
2023-01-17T16:53:10.400Z,10.00
2023-01-17T16:55:42.105Z,10.10
2023-01-17T16:58:10.734Z,10.50
2023-01-17T17:00:40.502Z,10.20
2023-01-17T17:03:19.926Z,9.40
2023-01-17T17:05:56.794Z,9.90
2023-01-17T17:08:25.067Z,10.70
2023-01-17T17:10:53.058Z,10.90
2023-01-17T17:13:21.327Z,9.50
2023-01-17T17:15:49.610Z,9.80
2023-01-17T17:18:18.104Z,10.50
2023-01-17T17:20:46.131Z,9.40
2023-01-17T17:23:14.200Z,10.00
2023-01-17T17:25:42.212Z,5.40
2023-01-17T17:28:10.836Z,3.80
2023-01-17T17:30:38.927Z,1.80
2023-01-17T17:33:06.998Z,1.20
2023-01-17T17:35:35.177Z,1.40
2023-01-17T17:38:05.711Z,1.30
2023-01-17T17:40:37.919Z,1.50
2023-01-17T17:43:07.058Z,1.60
2023-01-17T17:45:35.270Z,2.90
2023-01-17T17:48:03.507Z,2.70
2023-01-17T17:50:31.577Z,3.00
2023-01-17T17:52:59.513Z,4.00
2023-01-17T17:55:28.741Z,2.80
2023-01-17T17:57:57.264Z,2.00
2023-01-17T18:00:25.409Z,2.60
2023-01-17T18:02:53.467Z,5.40
2023-01-17T18:05:21.539Z,7.70
2023-01-17T18:07:51.042Z,9.80
2023-01-17T18:10:19.699Z,11.00
2023-01-17T18:12:47.812Z,16.10
2023-01-17T18:15:15.973Z,23.00
2023-01-17T18:17:44.192Z,20.10
2023-01-17T18:20:12.388Z,18.40
2023-01-17T18:22:41.982Z,16.00
2023-01-17T18:25:11.693Z,17.60
2023-01-17T18:27:40.621Z,16.00
2023-01-17T18:30:09.520Z,14.60
2023-01-17T18:32:38.299Z,14.10
2023-01-17T18:35:06.919Z,14.50
2023-01-17T18:37:35.120Z,12.90
2023-01-17T18:40:03.229Z,10.60
2023-01-17T18:42:31.403Z,8.40
2023-01-17T18:44:59.497Z,8.80
2023-01-17T18:47:29.370Z,8.70
2023-01-17T18:49:57.376Z,9.80
2023-01-17T18:52:25.420Z,10.00
2023-01-17T18:54:53.390Z,7.90
2023-01-17T18:57:21.465Z,7.50
2023-01-17T18:59:49.428Z,5.60
2023-01-17T19:02:18.217Z,5.10
2023-01-17T19:04:46.405Z,5.50
2023-01-17T19:07:14.566Z,5.10
2023-01-17T19:09:44.272Z,5.50
2023-01-17T19:12:12.237Z,5.60
2023-01-17T19:14:40.318Z,5.20
2023-01-17T19:17:08.378Z,5.00
2023-01-17T19:19:36.350Z,3.60
2023-01-17T19:22:04.371Z,3.20
2023-01-17T19:24:32.467Z,2.90
2023-01-17T19:27:00.457Z,3.00
2023-01-17T19:29:28.936Z,3.20
2023-01-17T19:31:57.159Z,4.60
2023-01-17T19:34:25.490Z,4.80
2023-01-17T19:36:55.513Z,6.40
2023-01-17T19:39:25.633Z,7.10
2023-01-17T19:41:53.798Z,8.20
2023-01-17T19:44:21.884Z,9.10
2023-01-17T19:46:50.041Z,11.60
2023-01-17T19:49:24.030Z,12.30
2023-01-17T19:51:52.424Z,13.70
2023-01-17T19:54:20.402Z,13.10
2023-01-17T19:56:48.467Z,14.60
2023-01-17T19:59:16.903Z,14.40
2023-01-17T20:01:45.097Z,14.90
2023-01-17T20:04:13.297Z,14.50
2023-01-17T20:06:41.479Z,14.40
2023-01-17T20:09:09.951Z,15.50
2023-01-17T20:11:38.529Z,14.60
2023-01-17T20:14:06.655Z,14.70
2023-01-17T20:16:37.208Z,15.00
2023-01-17T20:19:05.813Z,15.20
2023-01-17T20:21:34.534Z,14.30
2023-01-17T20:24:03.503Z,16.70
2023-01-17T20:26:37.106Z,15.80
2023-01-17T20:29:12.846Z,15.80
2023-01-17T20:31:42.851Z,15.80
2023-01-17T20:34:13.698Z,15.20
2023-01-17T20:36:42.288Z,12.80
2023-01-17T20:39:14.105Z,11.20
2023-01-17T20:41:43.973Z,11.80
2023-01-17T20:44:15.444Z,10.20
2023-01-17T20:46:44.051Z,11.20
2023-01-17T20:49:15.546Z,10.60
2023-01-17T20:51:44.941Z,11.10
2023-01-17T20:54:18.591Z,10.90
2023-01-17T20:56:47.835Z,11.60
2023-01-17T20:59:18.797Z,12.00
2023-01-17T21:01:47.279Z,11.90
2023-01-17T21:04:15.741Z,13.70
2023-01-17T21:06:44.462Z,12.90
2023-01-17T21:09:15.054Z,13.90
2023-01-17T21:11:43.213Z,13.60
2023-01-17T21:14:11.700Z,14.00
2023-01-17T21:16:39.936Z,12.80
2023-01-17T21:19:12.094Z,11.80
2023-01-17T21:21:40.444Z,12.20
2023-01-17T21:24:08.856Z,13.60
2023-01-17T21:26:39.036Z,11.00
2023-01-17T21:29:07.487Z,11.30
2023-01-17T21:31:36.928Z,12.10
2023-01-17T21:34:07.519Z,11.20
2023-01-17T21:36:40.835Z,10.80
2023-01-17T21:39:15.851Z,13.20
2023-01-17T21:41:48.002Z,23.70
2023-01-17T21:44:20.147Z,71.10
2023-01-17T21:46:49.353Z,77.80
2023-01-17T21:49:17.396Z,47.00
2023-01-17T21:51:54.424Z,26.50
2023-01-17T21:54:44.432Z,27.90
2023-01-17T21:57:32.783Z,32.00
2023-01-17T22:00:00.972Z,34.00
2023-01-17T22:02:29.017Z,34.60
2023-01-17T22:04:57.095Z,36.40
2023-01-17T22:07:27.220Z,38.80
2023-01-17T22:09:56.922Z,43.50
2023-01-17T22:12:25.276Z,42.10
2023-01-17T22:14:53.704Z,52.40
2023-01-17T22:17:22.313Z,46.60
2023-01-17T22:19:50.412Z,35.30
2023-01-17T22:22:18.591Z,42.60
2023-01-17T22:24:47.468Z,44.10
2023-01-17T22:27:15.545Z,39.60
2023-01-17T22:29:43.611Z,33.30
2023-01-17T22:32:11.686Z,30.70
2023-01-17T22:34:39.628Z,30.80
2023-01-17T22:37:10.323Z,27.00
2023-01-17T22:39:39.453Z,28.30
2023-01-17T22:42:07.855Z,27.00
2023-01-17T22:44:36.048Z,25.10
2023-01-17T22:47:04.026Z,26.60
2023-01-17T22:49:32.069Z,25.60
2023-01-17T22:52:00.010Z,25.40
2023-01-17T22:54:28.007Z,25.50
2023-01-17T22:56:56.174Z,25.00
2023-01-17T22:59:24.257Z,25.40
2023-01-17T23:01:53.960Z,22.40
2023-01-17T23:04:22.032Z,21.50
2023-01-17T23:06:49.965Z,19.40
2023-01-17T23:09:17.991Z,20.50
2023-01-17T23:11:52.814Z,23.90
2023-01-17T23:14:52.272Z,30.10
2023-01-17T23:17:40.853Z,32.30
2023-01-17T23:20:10.593Z,24.60
2023-01-17T23:22:39.160Z,25.50
2023-01-17T23:25:11.049Z,26.90
2023-01-17T23:28:01.600Z,29.50
2023-01-17T23:30:34.854Z,22.70
2023-01-17T23:33:04.757Z,23.60
2023-01-17T23:35:41.317Z,20.50
2023-01-17T23:38:26.573Z,20.10
2023-01-17T23:41:25.379Z,18.20
2023-01-17T23:43:58.220Z,19.40
2023-01-17T23:46:27.043Z,18.40
2023-01-17T23:48:55.368Z,16.00
2023-01-17T23:51:23.516Z,16.40
2023-01-17T23:53:57.469Z,16.30
2023-01-17T23:56:25.781Z,16.80
2023-01-17T23:58:53.827Z,17.20
